Flight Track Log - Related Links

Times and Time Zones

All times are in EDT time to prevent confusion due to time zone crossing. See the FLG3429 flight status page for this flight to view local times or setup timezone preferences in your user account.

Time Position Orientation Groundspeed Altitude Reporting Facility
EDT Latitude Longitude Course Direction KTS MPH feet Rate Location/Type
Tue 07:52:54 PM 40.6489 -73.8428 201° Southwest 175 201 1,600  Level New York Center
Tue 07:53:55 PM 40.6142 -73.8903 226° Southwest 224 258 3,300 2,095 Climbing New York Center
Tue 07:55:00 PM 40.3456 -73.9870 211° Southwest  Level FlightAware Approximate
Tue 07:55:00 PM 40.5500 -73.9500 215° Southwest 273 314 6,000  Level New York TRACON
Tue 07:56:00 PM 40.2494 -74.0615 207° Southwest  Level FlightAware Approximate
Tue 07:56:00 PM 40.4833 -74.0000 210° Southwest 278 320 8,800  Level New York TRACON
Tue 07:57:00 PM 40.1498 -74.1280 207° Southwest  Level FlightAware Approximate
Tue 07:57:00 PM 40.4167 -74.0667 217° Southwest 302 348 10,700  Level New York TRACON
Tue 07:57:54 PM 40.3328 -74.1253 208° Southwest 352 405 11,700 1,252 Climbing New York Center
Tue 07:58:00 PM 40.0528 -74.1986 201° Southwest  Level FlightAware Approximate
Tue 07:58:55 PM 40.2497 -74.1811 207° Southwest 367 422 13,100  Level New York Center
Tue 08:00:39 PM 40.0536 -74.2364 192° South 391 450 16,400 1,673 Climbing Washington Center
Tue 08:01:40 PM 39.9647 -74.2867 203° Southwest 397 457 17,700 1,200 Climbing Washington Center
Tue 08:02:39 PM 39.8739 -74.3775 218° Southwest 397 457 18,800 1,210 Climbing Washington Center
Tue 08:03:39 PM 39.7833 -74.4736 219° Southwest 408 470 20,100 1,311 Climbing Washington Center
Tue 08:04:38 PM 39.7031 -74.5828 226° Southwest 414 476 21,400 1,160 Climbing Washington Center
Tue 08:05:38 PM 39.6183 -74.6944 225° Southwest 426 490 22,400 1,041 Climbing Washington Center
Tue 08:06:39 PM 39.5317 -74.8086 225° Southwest 436 502 23,500 1,150 Climbing Washington Center
Tue 08:07:38 PM 39.4450 -74.9225 225° Southwest 441 507 24,700 1,361 Climbing Washington Center
Tue 08:08:38 PM 39.3558 -75.0414 226° Southwest 447 514 26,200 1,537 Climbing Washington Center
Tue 08:09:39 PM 39.2606 -75.1414 219° Southwest 447 514 27,800 1,736 Climbing Washington Center
Tue 08:10:39 PM 39.1567 -75.2169 209° Southwest 452 520 29,700 1,600 Climbing Washington Center
Tue 08:11:39 PM 39.0506 -75.3003 211° Southwest 440 506 31,000 1,240 Climbing Washington Center
Tue 08:12:40 PM 38.9486 -75.3781 211° Southwest 440 506 32,200 893 Climbing Washington Center
Tue 08:13:40 PM 38.8464 -75.4636 213° Southwest 440 506 32,800 763 Climbing Washington Center
Tue 08:14:38 PM 38.7361 -75.5383 208° Southwest 446 513 33,700 605 Climbing Washington Center
Tue 08:15:39 PM 38.6297 -75.6183 210° Southwest 451 519 34,000 148 Climbing Washington Center
Tue 08:16:40 PM 38.5192 -75.7058 212° Southwest 458 527 34,000  Level Washington Center
Tue 08:17:38 PM 38.4022 -75.7878 209° Southwest 470 541 34,000 102 Level Washington Center
Tue 08:18:38 PM 38.2708 -75.8853 210° Southwest 481 554 34,200 639 Climbing Washington Center
Tue 08:19:40 PM 38.1558 -75.9719 211° Southwest 486 559 35,300 885 Climbing Washington Center
Tue 08:20:40 PM 38.0408 -76.0531 209° Southwest 486 559 36,000 356 Climbing Washington Center
Tue 08:21:38 PM 37.9258 -76.1394 211° Southwest 486 559 36,000 151 Level Washington Center
Tue 08:22:39 PM 37.8128 -76.2225 210° Southwest 486 559 36,300 639 Climbing Washington Center
Tue 08:23:40 PM 37.6997 -76.3031 209° Southwest 486 559 37,300 807 Climbing Washington Center
Tue 08:24:38 PM 37.5908 -76.3833 210° Southwest 475 547 37,900 353 Climbing Washington Center
Tue 08:25:39 PM 37.4797 -76.4606 209° Southwest 465 535 38,000 49 Climbing Washington Center
Tue 08:26:40 PM 37.3686 -76.5431 211° Southwest 465 535 38,000  Level Washington Center
Tue 08:27:38 PM 37.2553 -76.6200 208° Southwest 465 535 38,000  Level Washington Center
Tue 08:28:38 PM 37.1397 -76.7017 209° Southwest 465 535 38,000  Level Washington Center
Tue 08:29:38 PM 37.0283 -76.7861 211° Southwest 470 541 38,000  Level Washington Center
Tue 08:30:39 PM 36.9297 -76.8597 211° Southwest 470 541 38,000  Level Washington Center
Tue 08:31:41 PM 36.8014 -76.9486 209° Southwest 470 541 38,000  Level Washington Center
Tue 08:32:39 PM 36.6900 -77.0319 211° Southwest 470 541 38,000  Level Washington Center
Tue 08:33:40 PM 36.5844 -77.1206 214° Southwest 470 541 38,000  Level Washington Center
Tue 08:34:38 PM 36.4789 -77.2089 214° Southwest 465 535 38,000  Level Washington Center
Tue 08:35:38 PM 36.3714 -77.2972 213° Southwest 465 535 38,000  Level Washington Center
Tue 08:36:39 PM 36.2658 -77.3875 215° Southwest 470 541 38,000  Level Washington Center
Tue 08:37:40 PM 36.1622 -77.4728 214° Southwest 470 541 38,000  Level Washington Center
Tue 08:38:40 PM 36.0544 -77.5625 214° Southwest 464 534 38,000  Level Washington Center
Tue 08:39:39 PM 35.9486 -77.6497 214° Southwest 469 540 38,000  Level Washington Center
Tue 08:40:39 PM 35.8383 -77.7392 213° Southwest 474 545 38,000  Level Washington Center
Tue 08:41:38 PM 35.7283 -77.8256 213° Southwest 474 545 38,000  Level Washington Center
Tue 08:42:38 PM 35.6225 -77.9122 214° Southwest 474 545 38,000  Level Washington Center
Tue 08:43:39 PM 35.5100 -78.0008 213° Southwest 474 545 38,000  Level Washington Center
Tue 08:44:39 PM 35.3978 -78.0892 213° Southwest 474 545 38,000  Level Washington Center
Tue 08:45:40 PM 35.2872 -78.1797 214° Southwest 474 545 38,000  Level Washington Center
Tue 08:46:38 PM 35.1747 -78.2703 213° Southwest 480 552 38,000  Level Washington Center
Tue 08:47:38 PM 35.0619 -78.3603 213° Southwest 485 558 38,000  Level Washington Center
Tue 08:48:39 PM 34.9619 -78.4406 213° Southwest 485 558 38,000  Level Washington Center
Tue 08:51:09 PM 34.6753 -78.6667 213° Southwest 471 542 38,000  Level Jacksonville Center
Tue 08:52:09 PM 34.5614 -78.7553 213° Southwest 476 548 38,000  Level Jacksonville Center
Tue 08:53:09 PM 34.4417 -78.8594 216° Southwest 487 560 38,000  Level Jacksonville Center
Tue 08:54:09 PM 34.3275 -78.9475 213° Southwest 493 567 38,000  Level Jacksonville Center
Tue 08:55:09 PM 34.2114 -79.0358 212° Southwest 493 567 38,000  Level Jacksonville Center
Tue 08:56:09 PM 34.0953 -79.1286 214° Southwest 493 567 38,000  Level Jacksonville Center
Tue 08:57:09 PM 33.9769 -79.2164 212° Southwest 493 567 38,000  Level Jacksonville Center
Tue 08:58:09 PM 33.8647 -79.3036 213° Southwest 493 567 38,000  Level Jacksonville Center
Tue 08:59:09 PM 33.7481 -79.3908 212° Southwest 493 567 38,000  Level Jacksonville Center
Tue 09:00:09 PM 33.6500 -79.4644 212° Southwest 487 560 38,000  Level Jacksonville Center
Tue 09:01:09 PM 33.5336 -79.5561 213° Southwest 487 560 38,000 -50 Level Jacksonville Center
Tue 09:02:09 PM 33.4169 -79.6428 212° Southwest 494 568 37,900 -600 Descending Jacksonville Center
Tue 09:03:09 PM 33.3042 -79.7264 212° Southwest 494 568 36,800 -950 Descending Jacksonville Center
Tue 09:04:09 PM 33.1894 -79.8147 213° Southwest 489 563 36,000 -850 Descending Jacksonville Center
Tue 09:05:09 PM 33.0725 -79.8981 211° Southwest 489 563 35,100 -950 Descending Jacksonville Center
Tue 09:06:09 PM 32.9456 -79.9964 213° Southwest 494 568 34,100 -550 Descending Jacksonville Center
Tue 09:07:09 PM 32.8264 -80.0869 213° Southwest 494 568 34,000 -350 Descending Jacksonville Center
Tue 09:08:09 PM 32.7094 -80.1792 214° Southwest 499 574 33,400 -800 Descending Jacksonville Center
Tue 09:09:09 PM 32.5986 -80.2689 214° Southwest 498 573 32,400 -1,000 Descending Jacksonville Center
Tue 09:10:09 PM 32.4856 -80.3558 213° Southwest 498 573 31,400 -1,000 Descending Jacksonville Center
Tue 09:11:09 PM 32.3725 -80.4453 214° Southwest 498 573 30,400 -1,100 Descending Jacksonville Center
Tue 09:12:09 PM 32.2572 -80.5342 213° Southwest 491 565 29,200 -1,250 Descending Jacksonville Center
Tue 09:13:09 PM 32.1483 -80.6181 213° Southwest 477 549 27,900 -1,300 Descending Jacksonville Center
Tue 09:14:09 PM 32.0453 -80.6989 214° Southwest 464 534 26,600 -1,300 Descending Jacksonville Center
Tue 09:15:09 PM 31.9464 -80.7747 213° Southwest 469 540 25,300 -1,450 Descending Jacksonville Center
Tue 09:16:09 PM 31.8267 -80.8606 211° Southwest 474 545 23,700 -1,600 Descending Jacksonville Center
Tue 09:17:09 PM 31.7192 -80.9314 209° Southwest 451 519 22,100 -1,750 Descending Jacksonville Center
Tue 09:18:09 PM 31.6219 -80.9919 208° Southwest 450 518 20,200 -2,050 Descending Jacksonville Center
Tue 09:19:09 PM 31.5039 -81.0625 207° Southwest 436 502 18,000 -1,950 Descending Jacksonville Center
Tue 09:20:09 PM 31.4047 -81.1231 208° Southwest 410 472 16,300 -1,800 Descending Jacksonville Center
Tue 09:21:09 PM 31.3197 -81.1781 209° Southwest 398 458 14,400 -1,950 Descending Jacksonville Center
Tue 09:22:09 PM 31.2247 -81.2431 210° Southwest 398 458 12,400 -2,087 Descending Jacksonville Center
Tue 09:22:41 PM 31.1644 -81.2731 203° Southwest 386 444 11,200 -1,548 Descending Jacksonville Center
Tue 09:23:42 PM 31.0628 -81.3233 203° Southwest 371 427 10,000 -590 Descending Jacksonville Center
Tue 09:24:43 PM 30.9694 -81.3733 205° Southwest 376 433 10,000  Level Jacksonville Center
Tue 09:25:43 PM 30.8864 -81.4183 205° Southwest 291 335 10,000 -835 Level Jacksonville Center
Tue 09:26:38 PM 30.8286 -81.4653 215° Southwest 281 323 8,400 -1,744 Descending Jacksonville Center
Tue 09:27:09 PM 30.8058 -81.4897 223° Southwest 306 352 7,500 -2,060 Descending Jacksonville Center
Tue 09:27:45 PM 30.7603 -81.5194 209° Southwest 272 313 6,100 -1,732 Descending Jacksonville Center
Tue 09:28:46 PM 30.6894 -81.5278 186° South 248 285 4,700 -1,289 Descending Jacksonville Center
Tue 09:29:46 PM 30.6350 -81.5308 183° South 174 200 3,500 -1,409 Descending Jacksonville Center
Tue 09:30:41 PM 30.5933 -81.5458 197° South 170 196 2,000 -991 Descending Jacksonville Center
Tue 09:31:41 PM 30.5519 -81.5731 210° Southwest 169 194 1,600 -365 Descending Jacksonville Center
Tue 09:32:36 PM 30.5272 -81.6047 228° Southwest 147 169 1,300 -569 Descending Jacksonville Center
Tue 09:33:37 PM 30.5131 -81.6458 248° West 153 176 500 -787 Descending Jacksonville Center

Login

Don't have an account? Register now (free) for customized features, flight alerts, and more!